createdAt,value
2019-03-13T00:00:54.324Z,44.00
2019-03-13T00:03:23.930Z,43.40
2019-03-13T00:05:54.026Z,45.52
2019-03-13T00:08:23.994Z,44.43
2019-03-13T00:10:53.755Z,42.83
2019-03-13T00:13:23.287Z,42.73
2019-03-13T00:15:52.760Z,42.67
2019-03-13T00:18:22.183Z,41.28
2019-03-13T00:20:51.992Z,43.00
2019-03-13T00:23:21.406Z,41.92
2019-03-13T00:25:50.864Z,40.63
2019-03-13T00:28:20.564Z,39.40
2019-03-13T00:30:50.013Z,39.45
2019-03-13T00:33:19.478Z,38.60
2019-03-13T00:35:49.218Z,39.00
2019-03-13T00:38:18.782Z,39.58
2019-03-13T00:40:48.196Z,38.88
2019-03-13T00:43:17.841Z,38.48
2019-03-13T00:45:47.317Z,37.58
2019-03-13T00:48:16.832Z,36.65
2019-03-13T00:50:46.578Z,37.48
2019-03-13T00:53:16.038Z,36.65
2019-03-13T00:55:45.991Z,35.73
2019-03-13T00:58:15.428Z,36.30
2019-03-13T01:01:01.561Z,35.33
2019-03-13T01:03:56.516Z,36.17
2019-03-13T01:06:32.124Z,34.50
2019-03-13T01:09:01.660Z,34.60
2019-03-13T01:11:31.279Z,33.85
2019-03-13T01:14:00.805Z,33.73
2019-03-13T01:16:30.562Z,32.28
2019-03-13T01:19:00.075Z,33.35
2019-03-13T01:21:29.874Z,32.63
2019-03-13T01:23:59.339Z,34.15
2019-03-13T01:26:29.079Z,35.52
2019-03-13T01:28:58.553Z,32.50
2019-03-13T01:31:34.938Z,34.43
2019-03-13T01:34:20.659Z,34.40
2019-03-13T01:36:50.437Z,36.53
2019-03-13T01:39:19.945Z,38.02
2019-03-13T01:41:49.419Z,35.80
2019-03-13T01:44:19.115Z,36.40
2019-03-13T01:46:48.604Z,37.48
2019-03-13T01:49:18.053Z,37.65
2019-03-13T01:51:47.787Z,34.83
2019-03-13T01:54:17.265Z,36.80
2019-03-13T01:56:47.115Z,37.58
2019-03-13T01:59:16.577Z,37.08
2019-03-13T02:01:46.017Z,36.08
2019-03-13T02:04:15.716Z,36.00
2019-03-13T02:06:45.273Z,35.80
2019-03-13T02:09:14.767Z,37.98
2019-03-13T02:11:44.429Z,36.35
2019-03-13T02:14:13.939Z,35.17
2019-03-13T02:16:43.370Z,35.20
2019-03-13T02:19:13.357Z,34.48
2019-03-13T02:21:42.803Z,36.30
2019-03-13T02:24:12.637Z,34.73
2019-03-13T02:26:42.090Z,36.90
2019-03-13T02:29:11.570Z,34.73
2019-03-13T02:31:41.177Z,35.23
2019-03-13T02:34:10.636Z,32.25
2019-03-13T02:36:40.109Z,34.67
2019-03-13T02:39:09.802Z,36.42
2019-03-13T02:41:39.292Z,34.27
2019-03-13T02:44:08.735Z,34.88
2019-03-13T02:46:38.549Z,34.70
2019-03-13T02:49:08.023Z,32.67
2019-03-13T02:51:37.832Z,31.52
2019-03-13T02:54:07.271Z,33.67
2019-03-13T02:56:36.705Z,30.92
2019-03-13T02:59:06.510Z,30.12
2019-03-13T03:01:57.699Z,31.30
2019-03-13T03:04:27.327Z,32.50
2019-03-13T03:06:56.760Z,31.93
2019-03-13T03:09:26.317Z,31.05
2019-03-13T03:11:56.019Z,29.82
2019-03-13T03:14:25.400Z,31.23
2019-03-13T03:16:54.877Z,29.67
2019-03-13T03:19:24.602Z,28.95
2019-03-13T03:21:54.094Z,29.92
2019-03-13T03:24:23.606Z,28.42
2019-03-13T03:26:53.258Z,28.98
2019-03-13T03:29:22.740Z,26.60
2019-03-13T03:31:52.189Z,27.25
2019-03-13T03:34:22.010Z,28.02
2019-03-13T03:36:51.450Z,27.62
2019-03-13T03:39:20.839Z,26.30
2019-03-13T03:41:50.682Z,25.73
2019-03-13T03:44:20.106Z,24.70
2019-03-13T03:46:49.864Z,26.00
2019-03-13T03:49:19.384Z,25.00
2019-03-13T03:51:48.820Z,24.45
2019-03-13T03:54:18.600Z,23.67
2019-03-13T03:56:47.994Z,24.35
2019-03-13T03:59:17.459Z,25.07
2019-03-13T04:01:46.885Z,23.55
2019-03-13T04:04:16.467Z,23.62
2019-03-13T04:06:45.869Z,22.70
2019-03-13T04:09:15.329Z,24.18
2019-03-13T04:11:45.041Z,23.92
2019-03-13T04:14:14.513Z,22.48
2019-03-13T04:16:43.974Z,23.47
2019-03-13T04:19:13.750Z,23.40
2019-03-13T04:21:43.160Z,22.73
2019-03-13T04:24:12.617Z,21.87
2019-03-13T04:26:45.931Z,21.75
2019-03-13T04:29:15.563Z,21.02
2019-03-13T04:31:44.970Z,22.00
2019-03-13T04:34:14.482Z,21.65
2019-03-13T04:36:44.030Z,21.30
2019-03-13T04:39:13.480Z,21.60
2019-03-13T04:41:42.886Z,20.48
2019-03-13T04:44:12.764Z,20.45
2019-03-13T04:46:42.212Z,20.75
2019-03-13T04:49:11.686Z,20.68
2019-03-13T04:51:41.747Z,19.10
2019-03-13T04:54:11.172Z,18.73
2019-03-13T04:56:40.796Z,18.95
2019-03-13T04:59:10.226Z,18.42
2019-03-13T05:01:39.672Z,18.20
2019-03-13T05:04:09.295Z,17.92
2019-03-13T05:06:38.744Z,16.40
2019-03-13T05:09:16.266Z,18.77
2019-03-13T05:11:45.790Z,17.55
2019-03-13T05:14:15.216Z,16.87
2019-03-13T05:16:44.761Z,18.25
2019-03-13T05:19:14.272Z,18.57
2019-03-13T05:21:44.132Z,17.77
2019-03-13T05:24:13.910Z,18.42
2019-03-13T05:26:43.365Z,17.98
2019-03-13T05:29:12.814Z,17.67
2019-03-13T05:31:42.460Z,17.85
2019-03-13T05:34:11.927Z,17.90
2019-03-13T05:36:41.353Z,18.52
2019-03-13T05:39:11.165Z,18.30
2019-03-13T05:41:40.665Z,18.52
2019-03-13T05:44:10.120Z,18.55
2019-03-13T05:46:39.548Z,18.95
2019-03-13T05:49:09.064Z,24.23
2019-03-13T05:51:38.500Z,19.23
2019-03-13T05:54:07.929Z,19.62
2019-03-13T05:56:40.706Z,18.00
2019-03-13T05:59:09.012Z,16.70
2019-03-13T06:01:38.481Z,16.25
2019-03-13T06:04:08.462Z,16.73
2019-03-13T06:06:37.573Z,17.92
2019-03-13T06:09:08.640Z,18.10
2019-03-13T06:11:38.207Z,16.03
2019-03-13T06:14:07.635Z,19.60
2019-03-13T06:16:37.435Z,21.35
2019-03-13T06:19:06.899Z,18.32
2019-03-13T06:21:36.649Z,18.10
2019-03-13T06:24:06.105Z,18.43
2019-03-13T06:26:35.583Z,21.55
2019-03-13T06:29:05.205Z,19.55
2019-03-13T06:31:34.681Z,21.85
2019-03-13T06:34:04.272Z,17.27
2019-03-13T06:36:33.877Z,16.87
2019-03-13T06:39:04.741Z,16.95
2019-03-13T06:41:33.660Z,15.20
2019-03-13T06:44:03.180Z,11.63
2019-03-13T06:46:31.980Z,16.55
2019-03-13T06:49:01.460Z,14.98
2019-03-13T06:51:31.009Z,16.27
2019-03-13T06:54:00.504Z,16.65
2019-03-13T06:56:29.654Z,16.97
2019-03-13T06:59:04.688Z,15.90
2019-03-13T07:01:55.876Z,16.93
2019-03-13T07:04:44.136Z,16.97
2019-03-13T07:07:30.606Z,14.07
2019-03-13T07:10:05.420Z,13.53
2019-03-13T07:13:06.593Z,15.35
2019-03-13T07:15:57.804Z,15.78
2019-03-13T07:18:44.441Z,16.80
2019-03-13T07:21:29.884Z,15.38
2019-03-13T07:24:09.758Z,15.20
2019-03-13T07:27:00.904Z,13.57
2019-03-13T07:29:36.626Z,15.48
2019-03-13T07:32:20.598Z,15.55
2019-03-13T07:35:14.985Z,14.38
2019-03-13T07:38:03.477Z,13.93
2019-03-13T07:40:57.927Z,15.30
2019-03-13T07:43:41.904Z,14.58
2019-03-13T07:46:28.073Z,15.68
2019-03-13T07:49:15.100Z,15.38
2019-03-13T07:52:03.852Z,15.28
2019-03-13T07:54:50.132Z,14.58
2019-03-13T07:57:24.931Z,15.18
2019-03-13T08:00:11.872Z,13.25
2019-03-13T08:02:52.256Z,13.98
2019-03-13T08:05:28.266Z,13.90
2019-03-13T08:08:25.960Z,14.30
2019-03-13T08:11:13.163Z,12.82
2019-03-13T08:13:54.792Z,11.22
2019-03-13T08:16:37.444Z,11.35
2019-03-13T08:19:24.717Z,11.95
2019-03-13T08:22:14.744Z,11.60
2019-03-13T08:25:03.221Z,10.57
2019-03-13T08:28:03.238Z,11.43
2019-03-13T08:30:48.657Z,9.90
2019-03-13T08:33:25.788Z,10.35
2019-03-13T08:36:13.059Z,10.30
2019-03-13T08:39:00.019Z,10.32
2019-03-13T08:41:47.244Z,9.48
2019-03-13T08:44:29.404Z,9.75
2019-03-13T08:47:10.924Z,9.50
2019-03-13T08:50:02.100Z,9.78
2019-03-13T08:52:52.718Z,9.20
2019-03-13T08:55:34.868Z,8.43
2019-03-13T08:58:31.796Z,8.90
2019-03-13T09:01:19.217Z,8.50
2019-03-13T09:03:59.937Z,8.83
2019-03-13T09:06:47.123Z,8.95
2019-03-13T09:09:41.756Z,9.38
2019-03-13T09:12:16.736Z,8.35
2019-03-13T09:15:07.860Z,9.87
2019-03-13T09:17:57.743Z,8.65
2019-03-13T09:20:43.681Z,8.48
2019-03-13T09:23:32.145Z,9.03
2019-03-13T09:26:23.018Z,9.47
2019-03-13T09:29:14.700Z,8.47
2019-03-13T09:32:02.109Z,9.35
2019-03-13T09:34:53.465Z,9.35
2019-03-13T09:37:38.839Z,8.50
2019-03-13T09:40:27.239Z,9.20
2019-03-13T09:43:05.763Z,7.20
2019-03-13T09:45:45.868Z,8.13
2019-03-13T09:48:31.098Z,6.33
2019-03-13T09:51:28.296Z,8.48
2019-03-13T09:54:19.446Z,8.65
2019-03-13T09:57:04.793Z,9.40
2019-03-13T10:00:02.327Z,9.43
2019-03-13T10:02:40.915Z,9.10
2019-03-13T10:05:20.121Z,8.60
2019-03-13T10:07:54.369Z,8.95
2019-03-13T10:10:28.951Z,8.20
2019-03-13T10:13:16.246Z,8.63
2019-03-13T10:15:53.681Z,8.55
2019-03-13T10:18:45.406Z,8.65
2019-03-13T10:21:42.877Z,7.40
2019-03-13T10:24:29.909Z,8.25
2019-03-13T10:27:17.775Z,7.95
2019-03-13T10:30:14.811Z,8.00
2019-03-13T10:33:12.345Z,8.20
2019-03-13T10:35:51.504Z,8.20
2019-03-13T10:38:33.363Z,8.43
2019-03-13T10:41:18.035Z,8.68
2019-03-13T10:44:03.070Z,7.72
2019-03-13T10:46:44.208Z,8.08
2019-03-13T10:49:51.011Z,8.08
2019-03-13T10:52:35.849Z,8.35
2019-03-13T10:55:20.099Z,8.08
2019-03-13T10:58:20.733Z,8.95
2019-03-13T11:01:27.615Z,9.28
2019-03-13T11:04:05.569Z,10.45
2019-03-13T11:06:59.780Z,9.63
2019-03-13T11:09:51.064Z,10.72
2019-03-13T11:12:35.472Z,9.88
2019-03-13T11:15:27.551Z,8.55
2019-03-13T11:18:11.968Z,9.38
2019-03-13T11:21:06.643Z,9.20
2019-03-13T11:23:48.188Z,9.55
2019-03-13T11:26:25.088Z,9.48
2019-03-13T11:29:13.460Z,8.98
2019-03-13T11:32:00.349Z,10.00
2019-03-13T11:34:51.587Z,9.23
2019-03-13T11:37:42.720Z,9.90
2019-03-13T11:40:32.018Z,9.48
2019-03-13T11:43:19.428Z,9.68
2019-03-13T11:46:26.134Z,8.38
2019-03-13T11:49:11.439Z,9.10
2019-03-13T11:52:02.584Z,9.55
2019-03-13T11:55:08.643Z,9.58
2019-03-13T11:57:57.033Z,9.35
2019-03-13T12:00:43.740Z,9.60
2019-03-13T12:03:41.477Z,9.75
2019-03-13T12:06:31.910Z,8.33
2019-03-13T12:09:26.568Z,10.63
2019-03-13T12:12:13.635Z,9.95
2019-03-13T12:15:00.751Z,10.40
2019-03-13T12:17:40.969Z,8.48
2019-03-13T12:20:22.136Z,10.18
2019-03-13T12:23:09.401Z,10.88
2019-03-13T12:25:47.778Z,10.10
2019-03-13T12:28:28.272Z,11.15
2019-03-13T12:31:22.799Z,11.50
2019-03-13T12:34:26.649Z,11.48
2019-03-13T12:37:13.088Z,12.05
2019-03-13T12:39:54.513Z,11.80
2019-03-13T12:42:39.298Z,11.25
2019-03-13T12:45:29.133Z,11.33
2019-03-13T12:48:20.824Z,11.80
2019-03-13T12:51:08.200Z,12.58
2019-03-13T12:53:56.681Z,11.03
2019-03-13T12:56:45.103Z,10.98
2019-03-13T12:59:25.398Z,11.63
2019-03-13T13:02:25.996Z,11.20
2019-03-13T13:05:13.233Z,11.50
2019-03-13T13:08:04.521Z,10.10
2019-03-13T13:10:49.075Z,10.93
2019-03-13T13:13:46.843Z,10.40
2019-03-13T13:16:30.645Z,11.12
2019-03-13T13:19:00.061Z,11.55
2019-03-13T13:21:29.471Z,10.80
2019-03-13T13:23:59.085Z,10.68
2019-03-13T13:26:28.526Z,9.43
2019-03-13T13:28:57.965Z,10.65
2019-03-13T13:31:27.690Z,9.68
2019-03-13T13:33:57.127Z,9.90
2019-03-13T13:36:27.208Z,10.03
2019-03-13T13:38:56.196Z,9.63
2019-03-13T13:41:25.299Z,9.43
2019-03-13T13:43:54.164Z,9.78
2019-03-13T13:46:24.793Z,8.90
2019-03-13T13:48:53.975Z,7.80
2019-03-13T13:51:23.199Z,8.13
2019-03-13T13:53:55.548Z,7.22
2019-03-13T13:56:23.703Z,8.05
2019-03-13T13:58:53.207Z,7.20
2019-03-13T14:01:22.716Z,4.97
2019-03-13T14:03:51.639Z,5.72
2019-03-13T14:06:21.108Z,7.03
2019-03-13T14:08:50.838Z,7.28
2019-03-13T14:11:20.311Z,6.70
2019-03-13T14:13:49.838Z,6.12
2019-03-13T14:16:18.712Z,5.90
2019-03-13T14:18:47.635Z,5.33
2019-03-13T14:21:17.082Z,5.90
2019-03-13T14:23:46.599Z,5.30
2019-03-13T14:26:16.127Z,5.10
2019-03-13T14:28:45.576Z,4.33
2019-03-13T14:31:15.036Z,5.15
2019-03-13T14:33:44.504Z,5.25
2019-03-13T14:36:14.206Z,5.10
2019-03-13T14:38:43.741Z,4.80
2019-03-13T14:41:12.627Z,5.60
2019-03-13T14:43:42.072Z,5.22
2019-03-13T14:46:11.027Z,5.20
2019-03-13T14:48:39.885Z,5.12
2019-03-13T14:51:09.521Z,5.15
2019-03-13T14:53:39.051Z,4.78
2019-03-13T14:56:08.002Z,4.85
2019-03-13T14:58:37.242Z,4.50
2019-03-13T15:01:06.248Z,4.00
2019-03-13T15:03:35.766Z,4.00
2019-03-13T15:06:05.242Z,3.50
2019-03-13T15:08:34.818Z,4.37
2019-03-13T15:11:03.661Z,4.45
2019-03-13T15:13:33.081Z,4.58
2019-03-13T15:16:02.806Z,4.55
2019-03-13T15:18:31.784Z,4.70
2019-03-13T15:21:01.294Z,5.33
2019-03-13T15:23:30.722Z,4.93
2019-03-13T15:26:00.204Z,5.17
2019-03-13T15:28:29.716Z,5.47
2019-03-13T15:30:59.314Z,5.78
2019-03-13T15:33:28.782Z,5.65
2019-03-13T15:35:58.205Z,5.70
2019-03-13T15:38:27.644Z,5.67
2019-03-13T15:40:58.187Z,5.50
2019-03-13T15:43:27.718Z,6.95
2019-03-13T15:45:57.264Z,5.93
2019-03-13T15:48:26.727Z,5.40
2019-03-13T15:50:56.524Z,5.42
2019-03-13T15:53:25.996Z,5.53
2019-03-13T15:55:55.665Z,6.50
2019-03-13T15:58:32.554Z,6.59
2019-03-13T16:01:02.282Z,6.90
2019-03-13T16:03:31.712Z,6.35
2019-03-13T16:06:01.186Z,6.92
2019-03-13T16:08:31.127Z,7.03
2019-03-13T16:11:00.598Z,6.17
2019-03-13T16:13:30.017Z,5.78
2019-03-13T16:15:59.613Z,5.37
2019-03-13T16:18:29.038Z,5.20
2019-03-13T16:20:58.513Z,5.42
2019-03-13T16:23:28.255Z,5.50
2019-03-13T16:28:03.825Z,7.87
2019-03-13T16:30:36.539Z,33.07
2019-03-13T16:33:06.007Z,9.93
2019-03-13T16:35:35.551Z,20.75
2019-03-13T16:38:05.276Z,28.57
2019-03-13T16:40:34.736Z,10.35
2019-03-13T16:43:05.042Z,6.30
2019-03-13T16:45:34.647Z,6.37
2019-03-13T16:48:04.109Z,5.85
2019-03-13T16:50:33.563Z,6.78
2019-03-13T16:53:03.052Z,6.10
2019-03-13T16:55:32.466Z,8.53
2019-03-13T16:58:01.946Z,7.08
2019-03-13T17:00:31.519Z,7.90
2019-03-13T17:03:01.169Z,8.50
2019-03-13T17:05:30.614Z,8.73
2019-03-13T17:08:00.142Z,8.75
2019-03-13T17:10:29.596Z,10.10
2019-03-13T17:12:59.118Z,12.93
2019-03-13T17:15:28.698Z,17.52
2019-03-13T17:17:58.419Z,20.57
2019-03-13T17:20:27.927Z,21.02
2019-03-13T17:22:57.814Z,26.52
2019-03-13T17:25:27.353Z,27.05
2019-03-13T17:27:56.892Z,26.30
2019-03-13T17:30:26.543Z,20.40
2019-03-13T17:32:56.354Z,20.20
2019-03-13T17:35:26.186Z,51.80
2019-03-13T17:37:55.801Z,24.63
2019-03-13T17:40:25.267Z,23.02
2019-03-13T17:42:54.981Z,25.77
2019-03-13T17:45:24.540Z,22.95
2019-03-13T17:47:54.171Z,26.68
2019-03-13T17:50:23.879Z,31.02
2019-03-13T17:52:53.480Z,29.57
2019-03-13T17:55:22.925Z,33.95
2019-03-13T17:57:53.164Z,90.20
2019-03-13T18:00:29.204Z,80.62
2019-03-13T18:02:58.688Z,41.73
2019-03-13T18:05:28.144Z,50.00
2019-03-13T18:07:57.608Z,37.45
2019-03-13T18:10:27.220Z,36.65
2019-03-13T18:12:56.770Z,29.90
2019-03-13T18:15:26.140Z,65.35
2019-03-13T18:17:55.593Z,37.85
2019-03-13T18:20:25.044Z,34.33
2019-03-13T18:22:54.455Z,34.03
2019-03-13T18:25:24.012Z,32.98
2019-03-13T18:27:53.481Z,32.73
2019-03-13T18:30:23.383Z,32.03
2019-03-13T18:32:52.847Z,34.15
2019-03-13T18:35:22.303Z,40.20
2019-03-13T18:37:51.831Z,36.73
2019-03-13T18:40:21.332Z,35.33
2019-03-13T18:42:50.815Z,34.55
2019-03-13T18:45:22.264Z,32.60
2019-03-13T18:47:51.760Z,33.70
2019-03-13T18:50:21.539Z,40.50
2019-03-13T18:52:51.014Z,51.37
2019-03-13T18:55:21.382Z,58.65
2019-03-13T18:57:51.200Z,61.88
2019-03-13T19:00:25.805Z,49.40
2019-03-13T19:02:55.291Z,40.45
2019-03-13T19:05:24.714Z,40.50
2019-03-13T19:07:54.208Z,45.75
2019-03-13T19:10:23.883Z,44.55
2019-03-13T19:12:53.449Z,45.03
2019-03-13T19:15:23.276Z,45.40
2019-03-13T19:17:52.717Z,49.08
2019-03-13T19:20:22.560Z,45.83
2019-03-13T19:22:52.130Z,49.00
2019-03-13T19:25:22.071Z,45.80
2019-03-13T19:27:51.558Z,42.80
2019-03-13T19:30:26.079Z,41.33
2019-03-13T19:32:55.683Z,58.48
2019-03-13T19:35:26.658Z,54.90
2019-03-13T19:37:56.589Z,46.37
2019-03-13T19:40:26.108Z,51.48
2019-03-13T19:42:55.561Z,45.07
2019-03-13T19:45:30.851Z,51.40
2019-03-13T19:48:01.579Z,45.80
2019-03-13T19:50:31.637Z,45.40
2019-03-13T19:53:01.046Z,39.42
2019-03-13T19:55:30.505Z,37.28
2019-03-13T19:58:00.329Z,35.28
2019-03-13T20:00:29.978Z,35.80
2019-03-13T20:03:00.799Z,32.35
2019-03-13T20:05:30.414Z,40.58
2019-03-13T20:07:59.846Z,52.13
2019-03-13T20:10:29.388Z,42.35
2019-03-13T20:12:58.809Z,42.67
2019-03-13T20:15:28.435Z,51.20
2019-03-13T20:17:57.871Z,66.17
2019-03-13T20:20:27.309Z,45.58
2019-03-13T20:22:58.082Z,51.03
2019-03-13T20:25:27.528Z,71.85
2019-03-13T20:27:56.989Z,44.73
2019-03-13T20:30:26.577Z,45.20
2019-03-13T20:32:56.138Z,59.90
2019-03-13T20:35:25.665Z,48.17
2019-03-13T20:37:55.107Z,30.50
2019-03-13T20:40:24.857Z,31.13
2019-03-13T20:42:54.315Z,32.75
2019-03-13T20:45:24.341Z,32.05
2019-03-13T20:47:53.774Z,29.77
2019-03-13T20:50:36.031Z,37.38
2019-03-13T20:52:54.365Z,30.10
2019-03-13T20:55:23.763Z,31.37
2019-03-13T20:57:53.212Z,30.62
2019-03-13T21:00:23.520Z,31.48
2019-03-13T21:02:52.974Z,32.70
2019-03-13T21:05:22.615Z,34.85
2019-03-13T21:07:52.071Z,47.78
2019-03-13T21:10:21.603Z,32.90
2019-03-13T21:12:51.219Z,36.55
2019-03-13T21:15:20.738Z,35.75
2019-03-13T21:17:50.146Z,33.00
2019-03-13T21:20:19.675Z,34.00
2019-03-13T21:22:49.270Z,56.20
2019-03-13T21:25:18.808Z,75.25
2019-03-13T21:27:48.392Z,54.23
2019-03-13T21:30:20.445Z,70.07
2019-03-13T21:32:49.882Z,58.98
2019-03-13T21:35:19.349Z,165.45
2019-03-13T21:37:48.745Z,137.97
2019-03-13T21:40:18.722Z,177.77
2019-03-13T21:42:48.171Z,112.08
2019-03-13T21:45:22.899Z,151.40
2019-03-13T21:47:48.729Z,96.03
2019-03-13T21:50:18.331Z,72.97
2019-03-13T21:52:47.836Z,53.02
2019-03-13T21:55:17.481Z,140.00
2019-03-13T21:57:46.899Z,64.60
2019-03-13T22:00:19.389Z,66.40
2019-03-13T22:02:48.785Z,41.00
2019-03-13T22:05:25.489Z,53.58
2019-03-13T22:07:49.510Z,57.45
2019-03-13T22:10:19.713Z,58.23
2019-03-13T22:12:49.138Z,43.20
2019-03-13T22:15:19.130Z,42.63
2019-03-13T22:17:48.558Z,60.00
2019-03-13T22:20:18.094Z,85.42
2019-03-13T22:22:47.511Z,56.10
2019-03-13T22:25:17.046Z,47.85
2019-03-13T22:27:46.587Z,43.80
2019-03-13T22:30:20.472Z,44.90
2019-03-13T22:32:50.007Z,48.80
2019-03-13T22:35:19.465Z,42.50
2019-03-13T22:37:49.207Z,49.75
2019-03-13T22:40:19.168Z,47.03
2019-03-13T22:42:48.805Z,56.53
2019-03-13T22:45:18.258Z,47.23
2019-03-13T22:47:47.682Z,42.23
2019-03-13T22:50:17.991Z,42.70
2019-03-13T22:52:47.407Z,43.55
2019-03-13T22:55:17.553Z,39.78
2019-03-13T22:57:46.985Z,39.18
2019-03-13T23:00:41.445Z,39.38
2019-03-13T23:03:11.280Z,41.80
2019-03-13T23:05:40.692Z,41.10
2019-03-13T23:08:10.132Z,35.35
2019-03-13T23:10:39.641Z,38.17
2019-03-13T23:13:09.073Z,33.98
2019-03-13T23:15:38.502Z,34.10
2019-03-13T23:18:07.980Z,35.43
2019-03-13T23:20:37.400Z,40.47
2019-03-13T23:23:06.826Z,36.17
2019-03-13T23:25:36.156Z,37.48
2019-03-13T23:28:05.615Z,36.70
2019-03-13T23:30:35.069Z,34.35
2019-03-13T23:33:04.485Z,32.93
2019-03-13T23:35:33.922Z,33.67
2019-03-13T23:38:03.662Z,35.20
2019-03-13T23:40:33.549Z,33.53
2019-03-13T23:43:03.082Z,32.80
2019-03-13T23:45:32.478Z,33.58
2019-03-13T23:48:01.875Z,34.18
2019-03-13T23:50:31.299Z,31.80
2019-03-13T23:53:00.722Z,30.37
2019-03-13T23:55:30.159Z,30.70
2019-03-13T23:57:59.748Z,30.82
